Time;durP1;ratioP1;P1;durP2;ratioP2;P2;SDS_P1;SDS_P2;PMS_P1;PMS_P2;Temp;Humidity;BMP_temperature;BMP_pressure;BME280_temperature;BME280_humidity;BME280_pressure;Samples;Min_cycle;Max_cycle;Signal;HPM_P1;HPM_P2
2021/12/01 05:02:21;;;;;;;1.80;1.70;;;5.20;99.90;;;;;;5160352;23;20490;-78
2021/12/01 05:04:48;;;;;;;5.83;2.00;;;5.20;99.90;;;;;;4996077;28;20545;-78
2021/12/01 05:07:14;;;;;;;2.33;1.87;;;5.20;99.90;;;;;;4995451;28;20805;-78
2021/12/01 05:09:41;;;;;;;4.17;2.60;;;5.10;99.90;;;;;;4996330;28;20440;-79
2021/12/01 05:12:09;;;;;;;2.00;1.90;;;5.10;99.90;;;;;;4996206;28;20473;-79
2021/12/01 05:14:36;;;;;;;2.43;2.23;;;5.10;99.90;;;;;;4996354;28;20447;-78
2021/12/01 05:17:04;;;;;;;2.40;1.63;;;5.10;99.90;;;;;;4995688;28;20463;-78
2021/12/01 05:19:33;;;;;;;2.07;1.70;;;5.10;99.90;;;;;;4995675;28;21036;-78
2021/12/01 05:22:00;;;;;;;1.90;1.80;;;5.10;99.90;;;;;;4995713;28;20578;-78
2021/12/01 05:24:26;;;;;;;1.93;1.80;;;5.20;99.90;;;;;;4995621;28;20465;-79
2021/12/01 05:26:53;;;;;;;1.87;1.77;;;5.20;99.90;;;;;;4995710;28;20465;-80
2021/12/01 05:29:23;;;;;;;1.83;1.73;;;5.20;99.90;;;;;;4995667;28;20538;-78
2021/12/01 05:31:50;;;;;;;3.13;2.07;;;5.20;99.90;;;;;;4996129;28;20477;-80
2021/12/01 05:34:17;;;;;;;1.77;1.67;;;5.30;99.90;;;;;;4996617;28;20486;-80
2021/12/01 05:36:46;;;;;;;1.83;1.73;;;5.30;99.90;;;;;;4995435;28;20451;-80
2021/12/01 05:39:12;;;;;;;1.90;1.80;;;5.30;99.90;;;;;;4995267;28;20597;-78
2021/12/01 05:41:39;;;;;;;4.07;1.97;;;5.30;99.90;;;;;;4995976;28;20471;-80
2021/12/01 05:44:06;;;;;;;1.70;1.60;;;5.20;99.90;;;;;;4995584;28;20538;-81
2021/12/01 05:46:33;;;;;;;2.73;1.53;;;5.30;99.90;;;;;;4995512;28;20517;-78
2021/12/01 05:49:00;;;;;;;4.60;1.97;;;5.30;99.90;;;;;;4994958;28;20455;-78
2021/12/01 05:51:27;;;;;;;1.67;1.57;;;5.30;99.90;;;;;;4994758;28;20649;-70
2021/12/01 05:53:55;;;;;;;2.70;1.93;;;5.30;99.90;;;;;;4994199;28;20447;-70
2021/12/01 05:56:22;;;;;;;1.80;1.70;;;5.40;99.90;;;;;;4994413;28;20443;-75
2021/12/01 05:58:49;;;;;;;2.23;2.03;;;5.40;99.90;;;;;;4994202;28;20487;-75
2021/12/01 06:01:16;;;;;;;2.67;1.50;;;5.40;99.90;;;;;;4994219;28;20491;-74
2021/12/01 06:03:43;;;;;;;8.13;1.97;;;5.40;99.90;;;;;;4994128;28;20455;-74
2021/12/01 06:06:10;;;;;;;1.80;1.70;;;5.50;99.90;;;;;;4993462;28;20491;-74
2021/12/01 06:08:37;;;;;;;1.60;1.50;;;5.50;99.90;;;;;;4993361;28;20497;-74
2021/12/01 06:11:05;;;;;;;2.03;1.70;;;5.50;99.90;;;;;;4993551;28;20502;-75
2021/12/01 06:13:32;;;;;;;1.60;1.50;;;5.50;99.90;;;;;;4994034;28;20455;-75
2021/12/01 06:15:59;;;;;;;1.63;1.53;;;5.50;99.90;;;;;;4993726;28;20549;-75
2021/12/01 06:18:29;;;;;;;1.50;1.40;;;5.60;99.90;;;;;;4993899;28;20466;-75
2021/12/01 06:20:56;;;;;;;2.90;1.80;;;5.60;99.90;;;;;;4993462;28;20514;-74
2021/12/01 06:23:26;;;;;;;1.57;1.47;;;5.70;99.90;;;;;;4993822;28;20462;-74
2021/12/01 06:25:52;;;;;;;1.40;1.30;;;5.70;99.90;;;;;;4993535;28;20459;-74
2021/12/01 06:28:21;;;;;;;1.67;1.47;;;5.80;99.90;;;;;;4993421;28;20947;-74
2021/12/01 06:30:47;;;;;;;1.63;1.50;;;5.80;99.90;;;;;;4993670;28;20471;-75
2021/12/01 06:33:14;;;;;;;1.53;1.40;;;5.90;99.90;;;;;;4993565;28;20454;-74
2021/12/01 06:35:46;;;;;;;2.20;1.60;;;6.00;99.90;;;;;;4993508;28;20541;-75
2021/12/01 06:38:13;;;;;;;2.80;1.80;;;6.00;99.90;;;;;;4993421;28;20443;-75
2021/12/01 06:40:40;;;;;;;1.40;1.30;;;6.10;99.90;;;;;;4993206;28;20587;-75
2021/12/01 06:43:07;;;;;;;1.47;1.37;;;6.00;99.90;;;;;;4993457;28;20939;-75
2021/12/01 06:45:35;;;;;;;3.90;2.00;;;6.10;99.90;;;;;;4993304;28;20459;-75
2021/12/01 06:48:02;;;;;;;1.60;1.50;;;6.10;99.90;;;;;;4992991;28;20457;-74
2021/12/01 06:50:29;;;;;;;3.10;1.67;;;6.10;99.90;;;;;;4992996;28;20943;-75
2021/12/01 06:52:55;;;;;;;2.07;1.80;;;6.10;99.90;;;;;;4992837;28;20461;-75
2021/12/01 06:55:23;;;;;;;2.73;2.30;;;6.20;99.90;;;;;;4993015;28;20541;-75
2021/12/01 06:57:50;;;;;;;1.47;1.37;;;6.20;99.90;;;;;;4993140;28;20447;-76
2021/12/01 07:00:19;;;;;;;1.30;1.20;;;6.20;99.90;;;;;;4992826;28;20590;-75
2021/12/01 07:02:48;;;;;;;1.53;1.43;;;6.20;99.90;;;;;;4993109;28;20529;-74
2021/12/01 07:05:17;;;;;;;3.10;2.00;;;6.20;99.90;;;;;;4992951;28;20536;-74
2021/12/01 07:07:44;;;;;;;1.40;1.30;;;6.30;99.90;;;;;;4992864;28;20454;-74
2021/12/01 07:10:13;;;;;;;0.90;0.90;;;6.30;99.90;;;;;;4993130;28;20443;-74
2021/12/01 07:12:41;;;;;;;1.40;1.17;;;6.30;99.90;;;;;;4992994;28;20486;-75
2021/12/01 07:15:09;;;;;;;2.07;1.30;;;6.30;99.90;;;;;;4992277;28;20461;-75
2021/12/01 07:17:36;;;;;;;2.00;1.33;;;6.30;99.90;;;;;;4992855;28;20439;-75
2021/12/01 07:20:05;;;;;;;1.77;1.67;;;6.30;99.90;;;;;;4992835;28;20939;-74
2021/12/01 07:22:32;;;;;;;4.37;1.60;;;6.30;99.90;;;;;;4992545;28;20466;-74
2021/12/01 07:24:59;;;;;;;1.40;1.30;;;6.30;99.90;;;;;;4993307;28;20455;-74
2021/12/01 07:27:26;;;;;;;1.00;1.00;;;6.40;99.90;;;;;;4992959;28;20455;-74
2021/12/01 07:29:53;;;;;;;2.20;1.30;;;6.40;99.90;;;;;;4992360;28;20455;-74
2021/12/01 07:32:20;;;;;;;1.47;1.33;;;6.40;99.90;;;;;;4993334;28;20529;-74
2021/12/01 07:34:46;;;;;;;2.37;1.50;;;6.50;99.90;;;;;;4993172;28;20951;-74
2021/12/01 07:37:17;;;;;;;2.97;1.30;;;6.50;99.90;;;;;;4992991;28;20533;-74
2021/12/01 07:39:45;;;;;;;1.60;1.50;;;6.50;99.90;;;;;;4993002;28;20500;-74
2021/12/01 07:42:13;;;;;;;1.40;1.10;;;6.50;99.90;;;;;;4993011;28;20477;-74
2021/12/01 07:44:40;;;;;;;1.40;1.20;;;6.60;99.90;;;;;;4993169;28;20963;-74
2021/12/01 07:47:07;;;;;;;1.63;1.40;;;6.50;99.90;;;;;;4992353;28;20451;-74
2021/12/01 07:49:34;;;;;;;1.33;1.23;;;6.60;99.90;;;;;;4993653;28;20587;-74
2021/12/01 07:52:01;;;;;;;1.40;1.30;;;6.60;99.90;;;;;;4993682;28;20549;-74
2021/12/01 07:54:29;;;;;;;1.20;1.10;;;6.60;99.90;;;;;;4992879;28;20542;-74
2021/12/01 07:56:56;;;;;;;0.90;0.90;;;6.70;99.90;;;;;;4992604;28;21078;-74
2021/12/01 07:59:23;;;;;;;0.80;0.80;;;6.60;99.90;;;;;;4992383;28;21191;-74
2021/12/01 08:01:50;;;;;;;1.20;1.20;;;6.70;99.90;;;;;;4992109;28;20475;-74
2021/12/01 08:04:17;;;;;;;0.90;0.83;;;6.70;99.90;;;;;;4992318;28;20542;-74
2021/12/01 08:06:44;;;;;;;2.40;0.80;;;6.70;99.90;;;;;;4992083;28;20546;-74
2021/12/01 08:09:11;;;;;;;0.90;0.90;;;6.80;99.90;;;;;;4992121;28;20947;-74
2021/12/01 08:11:40;;;;;;;1.17;1.07;;;6.80;99.90;;;;;;4992524;28;20545;-74
2021/12/01 08:14:08;;;;;;;2.83;1.23;;;6.90;99.90;;;;;;4992358;28;20895;-74
2021/12/01 08:16:35;;;;;;;1.27;1.00;;;6.80;99.90;;;;;;4991852;28;20455;-74
2021/12/01 08:19:02;;;;;;;1.97;1.10;;;6.90;99.90;;;;;;4992306;28;20879;-74
2021/12/01 08:21:29;;;;;;;1.10;1.00;;;6.90;99.90;;;;;;4992046;28;21069;-74
2021/12/01 08:23:56;;;;;;;1.37;0.90;;;6.90;99.90;;;;;;4991934;28;20897;-74
2021/12/01 08:26:23;;;;;;;1.10;1.10;;;6.90;99.90;;;;;;4993621;28;20494;-74
2021/12/01 08:28:52;;;;;;;1.00;1.00;;;7.00;99.90;;;;;;4996154;28;20625;-74
2021/12/01 08:31:20;;;;;;;3.80;0.90;;;7.00;99.90;;;;;;4995868;28;20843;-74
2021/12/01 08:33:47;;;;;;;3.53;1.10;;;7.00;99.90;;;;;;4995938;28;20455;-74
2021/12/01 08:36:15;;;;;;;1.00;1.00;;;7.00;99.90;;;;;;4995551;28;20455;-74
2021/12/01 08:38:43;;;;;;;1.53;0.83;;;7.00;99.90;;;;;;4995833;28;20546;-74
2021/12/01 08:41:10;;;;;;;2.03;1.10;;;7.10;99.90;;;;;;4995419;28;20912;-74
2021/12/01 08:43:37;;;;;;;1.23;0.90;;;7.10;99.90;;;;;;4995831;28;20534;-74
2021/12/01 08:46:07;;;;;;;0.93;0.90;;;7.10;99.90;;;;;;4995560;28;20541;-74
2021/12/01 08:48:35;;;;;;;0.80;0.80;;;7.10;99.90;;;;;;4995824;28;20919;-74
2021/12/01 08:51:03;;;;;;;2.07;1.00;;;7.20;99.90;;;;;;4995384;28;20889;-74
2021/12/01 08:53:31;;;;;;;1.93;1.10;;;7.20;99.90;;;;;;4995569;28;20461;-74
2021/12/01 08:55:58;;;;;;;1.03;0.93;;;7.30;99.90;;;;;;4995402;28;20831;-74
2021/12/01 08:58:25;;;;;;;1.00;1.00;;;7.30;99.90;;;;;;4995500;28;20454;-74
2021/12/01 09:00:54;;;;;;;3.13;1.00;;;7.40;99.90;;;;;;4995202;28;20505;-74
2021/12/01 09:03:24;;;;;;;1.97;0.90;;;7.40;99.90;;;;;;4995248;28;20479;-74
2021/12/01 09:05:52;;;;;;;1.27;0.80;;;7.50;99.90;;;;;;4995262;28;20827;-74
2021/12/01 09:08:21;;;;;;;0.80;0.80;;;7.60;99.90;;;;;;4995134;28;20513;-74
2021/12/01 09:10:48;;;;;;;0.97;0.97;;;7.60;99.90;;;;;;4995401;28;20510;-74
2021/12/01 09:13:16;;;;;;;1.73;1.10;;;7.70;99.90;;;;;;4995460;28;20489;-75
2021/12/01 09:15:43;;;;;;;1.53;0.80;;;7.80;99.90;;;;;;4995322;28;20482;-74
2021/12/01 09:18:10;;;;;;;1.20;0.70;;;7.90;99.90;;;;;;4995092;28;20538;-74
2021/12/01 09:20:38;;;;;;;0.93;0.93;;;7.90;99.90;;;;;;4995276;28;20502;-75
2021/12/01 09:23:06;;;;;;;1.23;0.90;;;8.00;99.90;;;;;;4995026;28;20444;-74
2021/12/01 09:25:33;;;;;;;1.13;1.03;;;8.00;99.90;;;;;;4995099;28;20892;-74
2021/12/01 09:28:01;;;;;;;2.30;1.07;;;8.10;99.90;;;;;;4994849;28;20939;-74
2021/12/01 09:30:28;;;;;;;4.70;2.93;;;8.20;99.90;;;;;;4993268;28;20546;-74
2021/12/01 09:32:55;;;;;;;2.70;2.23;;;8.20;99.90;;;;;;4993867;28;20939;-75
2021/12/01 09:35:22;;;;;;;1.33;1.23;;;8.30;99.90;;;;;;4994610;28;20462;-74
2021/12/01 09:37:50;;;;;;;0.90;0.90;;;8.30;99.90;;;;;;4994356;28;20832;-74
2021/12/01 09:40:19;;;;;;;2.87;1.13;;;8.30;99.90;;;;;;4994331;28;20589;-74
2021/12/01 09:42:49;;;;;;;1.63;1.13;;;8.30;99.90;;;;;;4994801;28;20455;-76
2021/12/01 09:45:18;;;;;;;1.77;0.90;;;8.40;99.90;;;;;;4993491;28;20879;-76
2021/12/01 09:47:45;;;;;;;1.07;0.97;;;8.40;99.90;;;;;;4993301;28;20451;-75
2021/12/01 09:50:13;;;;;;;0.90;0.90;;;8.50;99.90;;;;;;4994397;28;20455;-75
2021/12/01 09:52:39;;;;;;;0.80;0.80;;;8.50;99.90;;;;;;4994444;28;20497;-75
2021/12/01 09:55:11;;;;;;;3.60;1.10;;;8.50;99.90;;;;;;4994423;28;20965;-75
2021/12/01 09:57:38;;;;;;;1.37;1.07;;;8.60;99.90;;;;;;4994324;28;20486;-75
2021/12/01 10:00:07;;;;;;;1.03;1.00;;;8.60;99.90;;;;;;4994513;28;20497;-75
2021/12/01 10:02:35;;;;;;;3.37;1.20;;;8.60;99.90;;;;;;4994431;28;20514;-76
2021/12/01 10:05:02;;;;;;;0.80;0.80;;;8.60;99.90;;;;;;4994115;28;20489;-75
2021/12/01 10:07:33;;;;;;;0.80;0.80;;;8.70;99.90;;;;;;4992995;28;20900;-75
2021/12/01 10:10:07;;;;;;;1.07;0.97;;;8.70;99.90;;;;;;4994720;28;20479;-75
2021/12/01 10:12:50;;;;;;;0.80;0.80;;;8.70;99.90;;;;;;5012510;28;20982;-75
2021/12/01 10:15:29;;;;;;;4.53;2.33;;;8.70;99.90;;;;;;5012553;28;20992;-75
2021/12/01 10:18:10;;;;;;;0.90;0.90;;;8.70;99.90;;;;;;5012443;28;20454;-75
2021/12/01 10:20:37;;;;;;;0.80;0.80;;;8.80;99.90;;;;;;5001056;28;20490;-75
2021/12/01 10:23:09;;;;;;;0.80;0.80;;;8.80;99.90;;;;;;4995373;28;20552;-75
2021/12/01 10:25:36;;;;;;;1.20;0.87;;;8.80;99.90;;;;;;4999055;28;20451;-75
2021/12/01 10:28:05;;;;;;;0.73;0.73;;;8.80;99.90;;;;;;5008527;28;20473;-75
2021/12/01 10:30:40;;;;;;;0.97;0.90;;;8.80;99.90;;;;;;4997760;28;20435;-75
2021/12/01 10:33:09;;;;;;;1.10;1.00;;;8.90;99.90;;;;;;4992380;28;20489;-75
2021/12/01 10:35:37;;;;;;;0.73;0.73;;;8.90;99.90;;;;;;4992634;28;20963;-75
2021/12/01 10:38:06;;;;;;;0.80;0.80;;;8.90;99.90;;;;;;4992096;28;20457;-75
2021/12/01 10:40:34;;;;;;;0.80;0.80;;;8.90;99.90;;;;;;4993180;28;20494;-74
2021/12/01 10:43:03;;;;;;;1.20;0.90;;;8.90;99.90;;;;;;4993664;28;20881;-75
2021/12/01 10:45:34;;;;;;;0.80;0.80;;;9.00;99.90;;;;;;4993505;28;20457;-75
2021/12/01 10:48:02;;;;;;;0.90;0.90;;;9.00;99.90;;;;;;4998846;28;20529;-75
2021/12/01 10:50:32;;;;;;;2.13;0.83;;;9.00;99.90;;;;;;4996018;28;20526;-75
2021/12/01 10:53:04;;;;;;;2.50;0.90;;;9.10;99.90;;;;;;4993705;28;20538;-75
2021/12/01 10:55:35;;;;;;;0.70;0.70;;;9.10;99.90;;;;;;4993473;28;20546;-75
2021/12/01 10:58:05;;;;;;;1.43;0.97;;;9.10;99.90;;;;;;4993256;28;20563;-75
2021/12/01 11:00:38;;;;;;;1.00;0.90;;;9.10;99.90;;;;;;4993189;28;20491;-75
2021/12/01 11:03:07;;;;;;;0.87;0.87;;;9.10;99.90;;;;;;4993614;28;20459;-75
2021/12/01 11:05:36;;;;;;;0.93;0.93;;;9.10;99.90;;;;;;4993474;28;20534;-74
2021/12/01 11:08:11;;;;;;;1.13;0.90;;;9.10;99.90;;;;;;4994061;28;21022;-75
2021/12/01 11:10:38;;;;;;;0.80;0.80;;;9.10;99.90;;;;;;4992957;28;20476;-75
2021/12/01 11:13:06;;;;;;;0.97;0.87;;;9.10;99.90;;;;;;4993342;28;20537;-75
2021/12/01 11:15:37;;;;;;;0.80;0.80;;;9.10;99.90;;;;;;4993444;28;20534;-76
2021/12/01 11:18:05;;;;;;;1.23;1.13;;;9.20;99.90;;;;;;4992750;28;20451;-75
2021/12/01 11:20:36;;;;;;;1.20;1.10;;;9.20;99.90;;;;;;4992681;28;20608;-76
2021/12/01 11:23:12;;;;;;;1.50;1.13;;;9.20;99.90;;;;;;4992594;28;20447;-75
2021/12/01 11:25:40;;;;;;;1.17;1.07;;;9.20;99.90;;;;;;4992696;28;20974;-75
2021/12/01 11:28:13;;;;;;;0.80;0.80;;;9.10;99.90;;;;;;4992583;28;20955;-76
2021/12/01 11:30:44;;;;;;;1.27;1.07;;;9.10;99.90;;;;;;4992744;28;20553;-76
2021/12/01 11:33:13;;;;;;;1.10;1.00;;;9.10;99.90;;;;;;4992756;28;20538;-76
2021/12/01 11:35:42;;;;;;;0.83;0.80;;;9.10;99.90;;;;;;4992537;28;20459;-75
2021/12/01 11:38:10;;;;;;;1.00;0.90;;;9.10;99.90;;;;;;4992859;28;20451;-76
2021/12/01 11:40:39;;;;;;;0.73;0.73;;;9.10;99.90;;;;;;4992476;28;20880;-76
2021/12/01 11:43:10;;;;;;;1.10;1.00;;;9.10;99.90;;;;;;4992692;28;20446;-76
2021/12/01 11:45:41;;;;;;;1.10;1.00;;;9.10;99.90;;;;;;4992430;28;20458;-76
2021/12/01 11:48:12;;;;;;;1.23;0.90;;;9.10;99.90;;;;;;4992317;28;20554;-76
2021/12/01 11:50:48;;;;;;;6.13;1.67;;;9.20;99.90;;;;;;4992514;28;20565;-76
2021/12/01 11:53:22;;;;;;;0.80;0.80;;;9.20;99.90;;;;;;4992596;28;20604;-77
2021/12/01 11:55:54;;;;;;;1.10;1.00;;;9.20;99.90;;;;;;4992214;28;20897;-76
2021/12/01 11:58:56;;;;;;;1.03;0.90;;;9.20;99.90;;;;;;4992307;28;20997;-77
2021/12/01 12:01:44;;;;;;;0.93;0.90;;;9.20;99.90;;;;;;4972418;28;20505;-73
2021/12/01 12:04:42;;;;;;;1.17;1.00;;;9.20;99.90;;;;;;4973360;28;20459;-74
2021/12/01 12:07:13;;;;;;;1.93;1.00;;;9.20;99.90;;;;;;4991032;28;20454;-74
2021/12/01 12:09:40;;;;;;;1.30;1.20;;;9.20;99.90;;;;;;4995469;28;20547;-73
2021/12/01 12:12:14;;;;;;;2.40;1.00;;;9.30;99.90;;;;;;4995228;28;20467;-73
2021/12/01 12:14:51;;;;;;;0.93;0.93;;;9.30;99.90;;;;;;4995109;28;20447;-74
2021/12/01 12:17:21;;;;;;;0.90;0.80;;;9.30;99.90;;;;;;4994664;28;20465;-73
2021/12/01 12:19:59;;;;;;;1.47;1.30;;;9.30;99.90;;;;;;4995267;28;20454;-75
2021/12/01 12:22:33;;;;;;;0.80;0.80;;;9.40;99.90;;;;;;4995143;28;20545;-75
2021/12/01 12:25:00;;;;;;;1.00;1.00;;;9.40;99.90;;;;;;4994956;28;20462;-73
2021/12/01 12:27:35;;;;;;;1.80;0.90;;;9.40;99.90;;;;;;4994844;28;20459;-73
2021/12/01 12:30:06;;;;;;;1.47;1.37;;;9.50;99.90;;;;;;4995258;28;20469;-75
2021/12/01 12:32:39;;;;;;;1.50;1.20;;;9.50;99.90;;;;;;4994998;28;20565;-74
2021/12/01 12:35:09;;;;;;;1.40;1.30;;;9.50;99.90;;;;;;4994836;28;20510;-73
2021/12/01 12:37:37;;;;;;;1.33;1.00;;;9.60;99.90;;;;;;4994668;28;20494;-73
2021/12/01 12:40:12;;;;;;;0.90;0.90;;;9.60;99.90;;;;;;4994543;28;20490;-74
2021/12/01 12:43:06;;;;;;;1.63;0.73;;;9.60;99.90;;;;;;4995502;28;20537;-75
2021/12/01 12:45:34;;;;;;;1.10;1.00;;;9.60;99.90;;;;;;4995627;28;20450;-74
2021/12/01 12:48:22;;;;;;;0.70;0.70;;;9.70;99.90;;;;;;4995352;28;20484;-73
2021/12/01 12:51:08;;;;;;;4.60;1.30;;;9.60;99.90;;;;;;4995626;28;20470;-73
2021/12/01 12:53:35;;;;;;;1.10;1.10;;;9.60;99.90;;;;;;4995479;28;20545;-74
2021/12/01 12:56:25;;;;;;;1.20;1.10;;;9.60;99.90;;;;;;4995229;28;20541;-74
2021/12/01 12:58:52;;;;;;;1.57;1.00;;;9.60;99.90;;;;;;4995307;28;20455;-73
2021/12/01 13:01:25;;;;;;;1.83;0.90;;;9.60;99.90;;;;;;4995287;28;20504;-73
2021/12/01 13:03:53;;;;;;;0.90;0.90;;;9.60;99.90;;;;;;4995319;28;20886;-73
2021/12/01 13:06:31;;;;;;;1.10;1.00;;;9.60;99.90;;;;;;4995002;28;20982;-73
2021/12/01 13:09:15;;;;;;;1.67;1.20;;;9.60;99.90;;;;;;4995426;28;20447;-73
2021/12/01 13:11:44;;;;;;;0.90;0.90;;;9.50;99.90;;;;;;4994328;28;20482;-73
2021/12/01 13:14:13;;;;;;;1.00;1.00;;;9.60;99.90;;;;;;4995277;28;20457;-73
2021/12/01 13:16:40;;;;;;;1.63;1.10;;;9.50;99.90;;;;;;4994855;28;20960;-73
2021/12/01 13:19:11;;;;;;;1.83;1.70;;;9.50;99.90;;;;;;4995179;28;20498;-73
2021/12/01 13:21:39;;;;;;;1.57;0.90;;;9.50;99.90;;;;;;4994707;28;20581;-73
2021/12/01 13:24:07;;;;;;;1.10;1.00;;;9.50;99.90;;;;;;4995115;28;20456;-73
2021/12/01 13:26:35;;;;;;;1.23;1.00;;;9.50;99.90;;;;;;4994678;28;20799;-73
2021/12/01 13:29:08;;;;;;;1.10;1.10;;;9.40;99.90;;;;;;4994804;28;20534;-72
2021/12/01 13:31:36;;;;;;;1.40;1.30;;;9.40;99.90;;;;;;4994875;28;20485;-72
2021/12/01 13:34:05;;;;;;;0.90;0.90;;;9.40;99.90;;;;;;4994858;28;20534;-72
2021/12/01 13:36:35;;;;;;;1.47;1.00;;;9.30;99.90;;;;;;4994679;28;20451;-72
2021/12/01 13:39:07;;;;;;;1.27;1.17;;;9.30;99.90;;;;;;4994890;28;20494;-72
2021/12/01 13:41:37;;;;;;;1.07;0.97;;;9.30;99.90;;;;;;4994681;28;20585;-73
2021/12/01 13:44:11;;;;;;;1.30;1.20;;;9.30;99.90;;;;;;4994765;28;20455;-72
2021/12/01 13:46:39;;;;;;;3.03;1.10;;;9.40;99.90;;;;;;4993973;28;20537;-73
2021/12/01 13:49:07;;;;;;;1.13;1.03;;;9.30;99.90;;;;;;4994449;28;20530;-72
2021/12/01 13:51:38;;;;;;;1.10;1.00;;;9.40;99.90;;;;;;4994512;28;20481;-73
2021/12/01 13:54:22;;;;;;;1.30;1.10;;;9.40;99.90;;;;;;4994313;28;21015;-72
2021/12/01 13:57:03;;;;;;;3.10;1.30;;;9.30;99.90;;;;;;4994185;28;21018;-72
2021/12/01 13:59:43;;;;;;;1.17;1.07;;;9.40;99.90;;;;;;4994492;28;20447;-72
2021/12/01 14:02:10;;;;;;;1.70;1.10;;;9.40;99.90;;;;;;4994078;28;20505;-72
2021/12/01 14:04:38;;;;;;;1.67;1.10;;;9.30;99.90;;;;;;4994157;28;20494;-72
2021/12/01 14:07:07;;;;;;;1.60;1.50;;;9.30;99.90;;;;;;4994069;28;20458;-72
2021/12/01 14:09:41;;;;;;;1.20;1.10;;;9.30;99.90;;;;;;4994029;28;20556;-73
2021/12/01 14:12:11;;;;;;;1.50;1.40;;;9.30;99.90;;;;;;4994112;28;20890;-72
2021/12/01 14:14:41;;;;;;;1.27;1.17;;;9.30;99.90;;;;;;4994010;28;20822;-72
2021/12/01 14:17:08;;;;;;;1.50;1.40;;;9.30;99.90;;;;;;4993701;28;20934;-73
2021/12/01 14:19:35;;;;;;;1.10;1.10;;;9.30;99.90;;;;;;4993924;28;20555;-73
2021/12/01 14:22:10;;;;;;;2.77;1.47;;;9.30;99.90;;;;;;4993500;28;20881;-73
2021/12/01 14:24:37;;;;;;;1.30;1.20;;;9.30;99.90;;;;;;4992753;28;20872;-73
2021/12/01 14:27:07;;;;;;;1.83;1.60;;;9.20;99.90;;;;;;4993812;28;20546;-72
2021/12/01 14:29:37;;;;;;;2.30;1.30;;;9.20;99.90;;;;;;4993802;28;20549;-72
2021/12/01 14:32:07;;;;;;;2.63;1.63;;;9.20;99.90;;;;;;4993642;28;20482;-73
2021/12/01 14:34:37;;;;;;;1.33;1.23;;;9.20;99.90;;;;;;4993413;28;21002;-73
2021/12/01 14:37:06;;;;;;;3.67;1.20;;;9.10;99.90;;;;;;4993727;28;20486;-73
2021/12/01 14:39:33;;;;;;;2.50;1.00;;;9.20;99.90;;;;;;4993688;28;20537;-73
2021/12/01 14:42:00;;;;;;;1.27;1.17;;;9.10;99.90;;;;;;4992851;28;20503;-73
2021/12/01 14:44:29;;;;;;;1.60;1.50;;;9.20;99.90;;;;;;4992916;28;20458;-73
2021/12/01 14:46:58;;;;;;;2.07;1.30;;;9.20;99.90;;;;;;4993172;28;20443;-73
2021/12/01 14:49:37;;;;;;;1.07;1.00;;;9.10;99.90;;;;;;4993097;28;20553;-73
2021/12/01 14:52:06;;;;;;;1.47;1.00;;;9.10;99.90;;;;;;4993791;28;20469;-69
2021/12/01 14:54:35;;;;;;;2.07;1.30;;;9.10;99.90;;;;;;4993646;28;20530;-73
2021/12/01 14:57:05;;;;;;;1.33;1.20;;;9.00;99.90;;;;;;4993175;28;20494;-73
2021/12/01 14:59:33;;;;;;;0.93;0.93;;;9.00;99.90;;;;;;4993064;28;21028;-74
2021/12/01 15:02:19;;;;;;;1.30;1.20;;;9.00;99.90;;;;;;4992847;28;20494;-73
2021/12/01 15:05:04;;;;;;;1.00;1.00;;;9.00;99.90;;;;;;4993180;28;20453;-73
2021/12/01 15:07:32;;;;;;;1.40;1.10;;;9.00;99.90;;;;;;4992886;28;20465;-73
2021/12/01 15:10:10;;;;;;;1.10;1.00;;;9.00;99.90;;;;;;4992936;28;20546;-74
2021/12/01 15:12:37;;;;;;;1.27;1.17;;;8.90;99.90;;;;;;4993039;28;20475;-74
2021/12/01 15:15:23;;;;;;;0.90;0.90;;;8.90;99.90;;;;;;4992891;28;20541;-72
2021/12/01 15:18:02;;;;;;;1.20;1.10;;;8.90;99.90;;;;;;4992404;28;20439;-72
2021/12/01 15:20:31;;;;;;;1.40;1.30;;;8.90;99.90;;;;;;4992190;28;20517;-73
2021/12/01 15:23:01;;;;;;;1.40;1.20;;;8.90;99.90;;;;;;4991697;28;20582;-73
2021/12/01 15:25:28;;;;;;;0.90;0.90;;;9.00;99.90;;;;;;4993017;28;20513;-72
2021/12/01 15:27:55;;;;;;;1.73;1.00;;;9.00;99.90;;;;;;4992610;28;20542;-73
2021/12/01 15:30:22;;;;;;;6.63;1.10;;;8.90;99.90;;;;;;4991546;28;20458;-73
2021/12/01 15:32:49;;;;;;;1.30;1.20;;;9.00;99.90;;;;;;4991759;28;20951;-72
2021/12/01 15:35:16;;;;;;;0.73;0.73;;;9.00;99.90;;;;;;4991534;28;20545;-73
2021/12/01 15:37:44;;;;;;;0.70;0.70;;;8.90;99.90;;;;;;4992050;28;21013;-73
2021/12/01 15:40:13;;;;;;;1.13;1.03;;;8.90;99.90;;;;;;4991043;28;20994;-74
2021/12/01 15:42:39;;;;;;;2.00;1.47;;;8.90;99.90;;;;;;4992505;28;20585;-73
2021/12/01 15:45:07;;;;;;;1.40;1.30;;;8.90;99.90;;;;;;4992623;28;20447;-73
2021/12/01 15:47:35;;;;;;;1.63;1.40;;;8.90;99.90;;;;;;4992330;28;20531;-73
2021/12/01 15:50:04;;;;;;;0.83;0.83;;;8.90;99.90;;;;;;4992509;28;20459;-74
2021/12/01 15:52:31;;;;;;;1.47;1.17;;;8.80;99.90;;;;;;4992292;28;20475;-73
2021/12/01 15:54:59;;;;;;;1.30;1.20;;;8.80;99.90;;;;;;4992394;28;20459;-74
2021/12/01 15:57:27;;;;;;;1.30;1.20;;;8.80;99.90;;;;;;4991083;28;20465;-73
2021/12/01 15:59:54;;;;;;;0.90;0.90;;;8.80;99.90;;;;;;4992126;28;20809;-74
2021/12/01 16:02:22;;;;;;;1.23;1.20;;;8.80;99.90;;;;;;4992057;28;20499;-72
2021/12/01 16:04:49;;;;;;;1.73;1.10;;;8.90;99.90;;;;;;4992486;28;20788;-78
2021/12/01 16:07:15;;;;;;;1.10;1.00;;;8.80;99.90;;;;;;4993827;28;20458;-79
2021/12/01 16:09:42;;;;;;;1.00;1.00;;;8.90;99.90;;;;;;4993613;28;20541;-79
2021/12/01 16:12:12;;;;;;;1.20;0.90;;;8.80;99.90;;;;;;4993751;28;20506;-79
2021/12/01 16:14:39;;;;;;;1.00;1.00;;;8.90;99.90;;;;;;4993964;28;20470;-79
2021/12/01 16:17:05;;;;;;;1.00;1.00;;;8.90;99.90;;;;;;4994141;28;20459;-79
2021/12/01 16:19:32;;;;;;;0.90;0.90;;;8.90;99.90;;;;;;4993871;28;20523;-80
2021/12/01 16:22:00;;;;;;;1.07;1.00;;;8.80;99.90;;;;;;4993405;28;20995;-79
2021/12/01 16:24:27;;;;;;;1.37;0.93;;;8.80;99.90;;;;;;4993919;28;20497;-79
2021/12/01 16:26:54;;;;;;;1.10;1.00;;;8.80;99.90;;;;;;4993291;28;20459;-79
2021/12/01 16:29:23;;;;;;;0.70;0.70;;;8.80;99.90;;;;;;4993697;28;20966;-76
2021/12/01 16:31:50;;;;;;;1.43;1.03;;;8.80;99.90;;;;;;4992351;28;20559;-73
2021/12/01 16:34:17;;;;;;;1.03;1.03;;;8.80;99.90;;;;;;4992279;28;20482;-73
2021/12/01 16:36:44;;;;;;;1.23;1.13;;;8.80;99.90;;;;;;4992026;28;20447;-73
2021/12/01 16:39:11;;;;;;;1.30;1.30;;;8.80;99.90;;;;;;4992126;28;20459;-73
2021/12/01 16:41:38;;;;;;;0.97;0.93;;;8.80;99.90;;;;;;4991710;28;20481;-74
2021/12/01 16:44:05;;;;;;;1.80;0.90;;;8.80;99.90;;;;;;4991968;28;20513;-73
2021/12/01 16:46:33;;;;;;;0.90;0.90;;;8.80;99.90;;;;;;4992203;28;20443;-73
2021/12/01 16:49:00;;;;;;;1.10;1.00;;;8.80;99.90;;;;;;4995679;28;20482;-74
2021/12/01 16:51:27;;;;;;;1.03;1.03;;;8.80;99.90;;;;;;4995323;28;20474;-73
2021/12/01 16:53:54;;;;;;;1.30;1.20;;;8.80;99.90;;;;;;4995399;28;20960;-72
2021/12/01 16:56:21;;;;;;;1.33;1.17;;;8.80;99.90;;;;;;4995126;28;20494;-73
2021/12/01 16:58:48;;;;;;;2.23;1.20;;;8.80;99.90;;;;;;4995233;28;20446;-73
2021/12/01 17:01:15;;;;;;;1.83;1.73;;;8.80;99.90;;;;;;5010106;28;20478;-73
2021/12/01 17:03:50;;;;;;;0.90;0.90;;;8.80;99.90;;;;;;5013293;28;20489;-73
2021/12/01 17:06:25;;;;;;;1.40;1.30;;;8.70;99.90;;;;;;4995136;28;20465;-73
2021/12/01 17:08:53;;;;;;;0.90;0.90;;;8.70;99.90;;;;;;4995100;28;20824;-73
2021/12/01 17:11:20;;;;;;;2.73;1.40;;;8.70;99.90;;;;;;4995376;28;20507;-73
2021/12/01 17:13:47;;;;;;;1.27;1.17;;;8.70;99.90;;;;;;4995178;28;20447;-73
2021/12/01 17:16:15;;;;;;;1.53;1.20;;;8.70;99.90;;;;;;5035515;23;20589;-74
2021/12/01 17:18:44;;;;;;;3.80;1.60;;;8.70;99.90;;;;;;4995161;28;20463;-72
2021/12/01 17:21:13;;;;;;;2.37;1.77;;;8.70;99.90;;;;;;4994644;28;20455;-72
2021/12/01 17:23:40;;;;;;;2.13;1.47;;;8.70;99.90;;;;;;4995098;28;20482;-72
2021/12/01 17:26:08;;;;;;;2.17;1.37;;;8.70;99.90;;;;;;4978702;28;20507;-72
2021/12/01 17:28:38;;;;;;;1.40;1.30;;;8.70;99.90;;;;;;4975512;28;20480;-72
2021/12/01 17:31:09;;;;;;;1.30;1.20;;;8.70;99.90;;;;;;4975599;28;20475;-72
2021/12/01 17:33:36;;;;;;;1.63;1.30;;;8.70;99.90;;;;;;4974646;28;20442;-74
2021/12/01 17:36:05;;;;;;;2.37;1.50;;;8.90;99.90;;;;;;4974282;28;20319;-73
2021/12/01 17:38:34;;;;;;;1.33;1.23;;;8.90;99.90;;;;;;4974917;28;20479;-72
2021/12/01 17:41:01;;;;;;;2.43;1.50;;;8.90;99.90;;;;;;4975372;28;20456;-71
2021/12/01 17:43:29;;;;;;;2.10;1.70;;;8.80;99.90;;;;;;4975210;28;20495;-71
2021/12/01 17:45:59;;;;;;;1.63;1.53;;;8.80;99.90;;;;;;4974858;28;20476;-74
2021/12/01 17:48:26;;;;;;;1.50;1.40;;;8.70;99.90;;;;;;4975355;28;20452;-74
2021/12/01 17:50:53;;;;;;;1.50;1.40;;;8.60;99.90;;;;;;4979819;28;20534;-72
2021/12/01 17:53:21;;;;;;;2.00;1.37;;;8.60;99.90;;;;;;4994594;28;20530;-72
2021/12/01 17:55:48;;;;;;;1.53;1.43;;;8.60;99.90;;;;;;4994330;28;20946;-72
2021/12/01 17:58:15;;;;;;;1.40;1.30;;;8.60;99.90;;;;;;4994265;28;20542;-72
2021/12/01 18:00:42;;;;;;;1.77;1.57;;;8.60;99.90;;;;;;4994395;28;20534;-75
2021/12/01 18:03:10;;;;;;;2.93;2.20;;;8.60;99.90;;;;;;4994172;28;21060;-72
2021/12/01 18:05:39;;;;;;;4.27;2.43;;;8.60;99.90;;;;;;4994257;28;20498;-72
2021/12/01 18:08:08;;;;;;;6.83;3.37;;;8.50;99.90;;;;;;4994287;28;20461;-72
2021/12/01 18:10:38;;;;;;;3.00;2.47;;;8.50;99.90;;;;;;4994179;28;20513;-72